sensor_id;sensor_type;location;lat;lon;timestamp;P1;durP1;ratioP1;P2;durP2;ratioP2
51214;SDS011;63849;47.546;19.254;2023-05-31T00:02:12;8.75;;;5.50;;
51214;SDS011;63849;47.546;19.254;2023-05-31T00:04:41;9.45;;;5.82;;
51214;SDS011;63849;47.546;19.254;2023-05-31T00:07:06;6.25;;;5.35;;
51214;SDS011;63849;47.546;19.254;2023-05-31T00:09:32;10.57;;;5.72;;
51214;SDS011;63849;47.546;19.254;2023-05-31T00:11:58;7.50;;;5.35;;
51214;SDS011;63849;47.546;19.254;2023-05-31T00:14:25;9.07;;;5.72;;
51214;SDS011;63849;47.546;19.254;2023-05-31T00:16:51;5.60;;;4.72;;
51214;SDS011;63849;47.546;19.254;2023-05-31T00:19:17;8.88;;;5.45;;
51214;SDS011;63849;47.546;19.254;2023-05-31T00:21:45;7.13;;;5.20;;
51214;SDS011;63849;47.546;19.254;2023-05-31T00:24:15;7.80;;;4.88;;
51214;SDS011;63849;47.546;19.254;2023-05-31T00:26:41;8.13;;;4.82;;
51214;SDS011;63849;47.546;19.254;2023-05-31T00:29:07;6.45;;;4.75;;
51214;SDS011;63849;47.546;19.254;2023-05-31T00:31:33;6.55;;;4.90;;
51214;SDS011;63849;47.546;19.254;2023-05-31T00:33:58;7.13;;;4.57;;
51214;SDS011;63849;47.546;19.254;2023-05-31T00:36:24;6.47;;;4.45;;
51214;SDS011;63849;47.546;19.254;2023-05-31T00:38:50;7.85;;;5.10;;
51214;SDS011;63849;47.546;19.254;2023-05-31T00:41:16;7.18;;;4.50;;
51214;SDS011;63849;47.546;19.254;2023-05-31T00:43:42;7.30;;;4.43;;
51214;SDS011;63849;47.546;19.254;2023-05-31T00:46:19;12.88;;;4.55;;
51214;SDS011;63849;47.546;19.254;2023-05-31T00:48:55;7.28;;;4.60;;
51214;SDS011;63849;47.546;19.254;2023-05-31T00:51:21;6.72;;;4.50;;
51214;SDS011;63849;47.546;19.254;2023-05-31T00:53:49;5.78;;;4.55;;
51214;SDS011;63849;47.546;19.254;2023-05-31T00:56:16;7.22;;;4.32;;
51214;SDS011;63849;47.546;19.254;2023-05-31T00:58:44;5.90;;;4.32;;
51214;SDS011;63849;47.546;19.254;2023-05-31T01:01:10;9.43;;;4.90;;
51214;SDS011;63849;47.546;19.254;2023-05-31T01:03:39;7.75;;;4.95;;
51214;SDS011;63849;47.546;19.254;2023-05-31T01:06:07;5.32;;;4.38;;
51214;SDS011;63849;47.546;19.254;2023-05-31T01:08:34;6.20;;;4.40;;
51214;SDS011;63849;47.546;19.254;2023-05-31T01:11:12;8.48;;;4.32;;
51214;SDS011;63849;47.546;19.254;2023-05-31T01:14:01;5.57;;;4.47;;
51214;SDS011;63849;47.546;19.254;2023-05-31T01:16:41;6.93;;;4.97;;
51214;SDS011;63849;47.546;19.254;2023-05-31T01:19:29;7.80;;;4.80;;
51214;SDS011;63849;47.546;19.254;2023-05-31T01:27:20;8.27;;;4.38;;
51214;SDS011;63849;47.546;19.254;2023-05-31T01:29:47;9.48;;;4.50;;
51214;SDS011;63849;47.546;19.254;2023-05-31T01:32:16;9.05;;;4.90;;
51214;SDS011;63849;47.546;19.254;2023-05-31T01:34:45;6.57;;;4.70;;
51214;SDS011;63849;47.546;19.254;2023-05-31T01:37:14;7.45;;;4.95;;
51214;SDS011;63849;47.546;19.254;2023-05-31T01:39:40;6.85;;;4.63;;
51214;SDS011;63849;47.546;19.254;2023-05-31T01:42:06;8.93;;;4.88;;
51214;SDS011;63849;47.546;19.254;2023-05-31T01:44:34;8.88;;;4.95;;
51214;SDS011;63849;47.546;19.254;2023-05-31T01:47:01;6.45;;;4.65;;
51214;SDS011;63849;47.546;19.254;2023-05-31T01:49:28;7.07;;;4.78;;
51214;SDS011;63849;47.546;19.254;2023-05-31T01:51:53;6.85;;;4.68;;
51214;SDS011;63849;47.546;19.254;2023-05-31T01:54:21;7.68;;;4.68;;
51214;SDS011;63849;47.546;19.254;2023-05-31T01:56:47;8.73;;;4.75;;
51214;SDS011;63849;47.546;19.254;2023-05-31T01:59:13;5.80;;;4.15;;
51214;SDS011;63849;47.546;19.254;2023-05-31T02:01:40;9.10;;;4.97;;
51214;SDS011;63849;47.546;19.254;2023-05-31T02:04:06;5.35;;;4.85;;
51214;SDS011;63849;47.546;19.254;2023-05-31T02:06:36;8.55;;;4.57;;
51214;SDS011;63849;47.546;19.254;2023-05-31T02:09:03;5.50;;;4.63;;
51214;SDS011;63849;47.546;19.254;2023-05-31T02:11:30;8.35;;;4.68;;
51214;SDS011;63849;47.546;19.254;2023-05-31T02:13:56;13.00;;;4.70;;
51214;SDS011;63849;47.546;19.254;2023-05-31T02:16:22;8.05;;;4.50;;
51214;SDS011;63849;47.546;19.254;2023-05-31T02:18:49;7.68;;;4.60;;
51214;SDS011;63849;47.546;19.254;2023-05-31T02:21:16;6.68;;;4.43;;
51214;SDS011;63849;47.546;19.254;2023-05-31T02:23:42;6.65;;;4.45;;
51214;SDS011;63849;47.546;19.254;2023-05-31T02:26:08;7.68;;;4.15;;
51214;SDS011;63849;47.546;19.254;2023-05-31T02:28:33;7.25;;;4.63;;
51214;SDS011;63849;47.546;19.254;2023-05-31T02:30:59;25.10;;;6.35;;
51214;SDS011;63849;47.546;19.254;2023-05-31T02:33:26;6.45;;;4.38;;
51214;SDS011;63849;47.546;19.254;2023-05-31T02:35:53;7.90;;;4.95;;
51214;SDS011;63849;47.546;19.254;2023-05-31T02:38:22;7.70;;;4.93;;
51214;SDS011;63849;47.546;19.254;2023-05-31T02:40:48;8.57;;;4.70;;
51214;SDS011;63849;47.546;19.254;2023-05-31T02:43:14;8.32;;;4.57;;
51214;SDS011;63849;47.546;19.254;2023-05-31T02:45:40;5.80;;;4.28;;
51214;SDS011;63849;47.546;19.254;2023-05-31T02:48:06;5.95;;;4.15;;
51214;SDS011;63849;47.546;19.254;2023-05-31T02:50:32;8.45;;;4.05;;
51214;SDS011;63849;47.546;19.254;2023-05-31T02:52:58;6.35;;;4.57;;
51214;SDS011;63849;47.546;19.254;2023-05-31T02:55:29;7.60;;;3.92;;
51214;SDS011;63849;47.546;19.254;2023-05-31T02:57:56;7.07;;;4.55;;
51214;SDS011;63849;47.546;19.254;2023-05-31T03:00:22;8.15;;;4.63;;
51214;SDS011;63849;47.546;19.254;2023-05-31T03:02:49;6.22;;;4.28;;
51214;SDS011;63849;47.546;19.254;2023-05-31T03:05:15;6.13;;;3.85;;
51214;SDS011;63849;47.546;19.254;2023-05-31T03:07:41;6.97;;;4.18;;
51214;SDS011;63849;47.546;19.254;2023-05-31T03:10:07;7.32;;;3.95;;
51214;SDS011;63849;47.546;19.254;2023-05-31T03:12:33;6.90;;;3.97;;
51214;SDS011;63849;47.546;19.254;2023-05-31T03:14:59;7.65;;;4.53;;
51214;SDS011;63849;47.546;19.254;2023-05-31T03:17:25;7.95;;;4.38;;
51214;SDS011;63849;47.546;19.254;2023-05-31T03:19:51;6.88;;;4.30;;
51214;SDS011;63849;47.546;19.254;2023-05-31T03:22:17;7.70;;;4.80;;
51214;SDS011;63849;47.546;19.254;2023-05-31T03:24:42;6.32;;;4.20;;
51214;SDS011;63849;47.546;19.254;2023-05-31T03:27:08;13.75;;;4.22;;
51214;SDS011;63849;47.546;19.254;2023-05-31T03:29:38;7.93;;;4.22;;
51214;SDS011;63849;47.546;19.254;2023-05-31T03:32:05;9.93;;;3.95;;
51214;SDS011;63849;47.546;19.254;2023-05-31T03:34:31;5.57;;;4.28;;
51214;SDS011;63849;47.546;19.254;2023-05-31T03:36:58;9.13;;;4.50;;
51214;SDS011;63849;47.546;19.254;2023-05-31T03:39:24;12.50;;;4.88;;
51214;SDS011;63849;47.546;19.254;2023-05-31T03:41:50;10.00;;;4.82;;
51214;SDS011;63849;47.546;19.254;2023-05-31T03:44:16;4.43;;;3.75;;
51214;SDS011;63849;47.546;19.254;2023-05-31T03:46:42;5.78;;;4.30;;
51214;SDS011;63849;47.546;19.254;2023-05-31T03:49:08;8.57;;;4.78;;
51214;SDS011;63849;47.546;19.254;2023-05-31T03:51:34;7.20;;;4.07;;
51214;SDS011;63849;47.546;19.254;2023-05-31T03:54:05;8.55;;;4.60;;
51214;SDS011;63849;47.546;19.254;2023-05-31T03:56:31;7.68;;;4.10;;
51214;SDS011;63849;47.546;19.254;2023-05-31T03:58:57;4.35;;;3.92;;
51214;SDS011;63849;47.546;19.254;2023-05-31T04:01:23;8.57;;;4.50;;
51214;SDS011;63849;47.546;19.254;2023-05-31T04:03:49;9.43;;;3.90;;
51214;SDS011;63849;47.546;19.254;2023-05-31T04:06:14;6.68;;;4.13;;
51214;SDS011;63849;47.546;19.254;2023-05-31T04:08:40;6.85;;;4.13;;
51214;SDS011;63849;47.546;19.254;2023-05-31T04:11:06;7.25;;;3.95;;
51214;SDS011;63849;47.546;19.254;2023-05-31T04:13:32;7.10;;;4.10;;
51214;SDS011;63849;47.546;19.254;2023-05-31T04:16:01;8.48;;;4.55;;
51214;SDS011;63849;47.546;19.254;2023-05-31T04:18:30;7.10;;;4.00;;
51214;SDS011;63849;47.546;19.254;2023-05-31T04:20:56;7.22;;;4.28;;
51214;SDS011;63849;47.546;19.254;2023-05-31T04:23:21;8.18;;;4.18;;
51214;SDS011;63849;47.546;19.254;2023-05-31T04:25:47;5.00;;;3.65;;
51214;SDS011;63849;47.546;19.254;2023-05-31T04:28:13;8.73;;;4.20;;
51214;SDS011;63849;47.546;19.254;2023-05-31T04:30:40;8.07;;;3.97;;
51214;SDS011;63849;47.546;19.254;2023-05-31T04:33:06;5.78;;;3.85;;
51214;SDS011;63849;47.546;19.254;2023-05-31T04:35:32;7.70;;;4.15;;
51214;SDS011;63849;47.546;19.254;2023-05-31T04:37:58;6.35;;;3.58;;
51214;SDS011;63849;47.546;19.254;2023-05-31T04:40:28;8.10;;;3.60;;
51214;SDS011;63849;47.546;19.254;2023-05-31T04:43:00;7.38;;;4.03;;
51214;SDS011;63849;47.546;19.254;2023-05-31T04:45:32;8.65;;;4.00;;
51214;SDS011;63849;47.546;19.254;2023-05-31T04:47:59;6.35;;;3.78;;
51214;SDS011;63849;47.546;19.254;2023-05-31T04:50:25;8.02;;;4.22;;
51214;SDS011;63849;47.546;19.254;2023-05-31T04:52:50;11.52;;;4.35;;
51214;SDS011;63849;47.546;19.254;2023-05-31T04:55:17;9.15;;;3.88;;
51214;SDS011;63849;47.546;19.254;2023-05-31T04:57:43;8.20;;;3.60;;
51214;SDS011;63849;47.546;19.254;2023-05-31T05:00:09;7.68;;;3.90;;
51214;SDS011;63849;47.546;19.254;2023-05-31T05:02:40;8.05;;;3.70;;
51214;SDS011;63849;47.546;19.254;2023-05-31T05:05:08;8.65;;;4.50;;
51214;SDS011;63849;47.546;19.254;2023-05-31T05:07:34;7.85;;;4.05;;
51214;SDS011;63849;47.546;19.254;2023-05-31T05:10:01;8.43;;;3.80;;
51214;SDS011;63849;47.546;19.254;2023-05-31T05:12:28;7.85;;;3.60;;
51214;SDS011;63849;47.546;19.254;2023-05-31T05:14:54;7.38;;;3.97;;
51214;SDS011;63849;47.546;19.254;2023-05-31T05:17:20;5.47;;;3.65;;
51214;SDS011;63849;47.546;19.254;2023-05-31T05:19:45;8.27;;;3.92;;
51214;SDS011;63849;47.546;19.254;2023-05-31T05:22:11;5.85;;;3.47;;
51214;SDS011;63849;47.546;19.254;2023-05-31T05:24:37;5.00;;;4.00;;
51214;SDS011;63849;47.546;19.254;2023-05-31T05:27:03;9.18;;;4.03;;
51214;SDS011;63849;47.546;19.254;2023-05-31T05:29:29;7.63;;;3.80;;
51214;SDS011;63849;47.546;19.254;2023-05-31T05:31:54;5.32;;;3.33;;
51214;SDS011;63849;47.546;19.254;2023-05-31T05:34:20;3.97;;;3.03;;
51214;SDS011;63849;47.546;19.254;2023-05-31T05:36:46;8.00;;;4.18;;
51214;SDS011;63849;47.546;19.254;2023-05-31T05:39:12;6.57;;;4.05;;
51214;SDS011;63849;47.546;19.254;2023-05-31T05:41:37;6.80;;;3.92;;
51214;SDS011;63849;47.546;19.254;2023-05-31T05:44:03;7.95;;;3.75;;
51214;SDS011;63849;47.546;19.254;2023-05-31T05:46:29;7.28;;;3.22;;
51214;SDS011;63849;47.546;19.254;2023-05-31T05:48:54;4.53;;;3.47;;
51214;SDS011;63849;47.546;19.254;2023-05-31T05:51:21;6.30;;;3.47;;
51214;SDS011;63849;47.546;19.254;2023-05-31T05:53:47;7.72;;;3.60;;
51214;SDS011;63849;47.546;19.254;2023-05-31T05:56:13;6.20;;;3.65;;
51214;SDS011;63849;47.546;19.254;2023-05-31T05:58:45;6.43;;;3.80;;
51214;SDS011;63849;47.546;19.254;2023-05-31T06:01:12;5.32;;;3.60;;
51214;SDS011;63849;47.546;19.254;2023-05-31T06:03:43;6.28;;;3.80;;
51214;SDS011;63849;47.546;19.254;2023-05-31T06:06:13;5.30;;;3.33;;
51214;SDS011;63849;47.546;19.254;2023-05-31T06:08:39;6.93;;;3.83;;
51214;SDS011;63849;47.546;19.254;2023-05-31T06:11:05;6.22;;;3.65;;
51214;SDS011;63849;47.546;19.254;2023-05-31T06:13:31;8.52;;;3.55;;
51214;SDS011;63849;47.546;19.254;2023-05-31T06:15:57;5.00;;;3.70;;
51214;SDS011;63849;47.546;19.254;2023-05-31T06:18:24;7.43;;;4.05;;
51214;SDS011;63849;47.546;19.254;2023-05-31T06:20:49;7.95;;;3.47;;
51214;SDS011;63849;47.546;19.254;2023-05-31T06:23:15;8.05;;;3.72;;
51214;SDS011;63849;47.546;19.254;2023-05-31T06:25:41;5.25;;;3.75;;
51214;SDS011;63849;47.546;19.254;2023-05-31T06:28:07;4.88;;;3.53;;
51214;SDS011;63849;47.546;19.254;2023-05-31T06:30:32;7.38;;;3.58;;
51214;SDS011;63849;47.546;19.254;2023-05-31T06:32:58;8.02;;;4.28;;
51214;SDS011;63849;47.546;19.254;2023-05-31T06:35:24;4.20;;;3.03;;
51214;SDS011;63849;47.546;19.254;2023-05-31T06:40:42;6.03;;;3.53;;
51214;SDS011;63849;47.546;19.254;2023-05-31T06:43:08;9.18;;;3.60;;
51214;SDS011;63849;47.546;19.254;2023-05-31T06:45:35;6.32;;;4.00;;
51214;SDS011;63849;47.546;19.254;2023-05-31T06:48:01;6.20;;;3.63;;
51214;SDS011;63849;47.546;19.254;2023-05-31T06:50:26;4.80;;;3.17;;
51214;SDS011;63849;47.546;19.254;2023-05-31T06:52:52;5.10;;;3.33;;
51214;SDS011;63849;47.546;19.254;2023-05-31T06:55:18;6.93;;;3.72;;
51214;SDS011;63849;47.546;19.254;2023-05-31T06:57:44;6.93;;;3.55;;
51214;SDS011;63849;47.546;19.254;2023-05-31T07:00:09;8.27;;;3.53;;
51214;SDS011;63849;47.546;19.254;2023-05-31T07:02:36;5.60;;;3.65;;
51214;SDS011;63849;47.546;19.254;2023-05-31T07:05:01;8.52;;;3.78;;
51214;SDS011;63849;47.546;19.254;2023-05-31T07:07:27;4.97;;;3.15;;
51214;SDS011;63849;47.546;19.254;2023-05-31T07:09:53;5.68;;;3.30;;
51214;SDS011;63849;47.546;19.254;2023-05-31T07:12:19;5.70;;;3.60;;
51214;SDS011;63849;47.546;19.254;2023-05-31T07:14:44;8.52;;;3.80;;
51214;SDS011;63849;47.546;19.254;2023-05-31T07:17:10;6.10;;;3.20;;
51214;SDS011;63849;47.546;19.254;2023-05-31T07:19:43;5.68;;;3.15;;
51214;SDS011;63849;47.546;19.254;2023-05-31T07:22:13;6.60;;;4.03;;
51214;SDS011;63849;47.546;19.254;2023-05-31T07:24:40;5.90;;;3.38;;
51214;SDS011;63849;47.546;19.254;2023-05-31T07:27:06;4.88;;;3.40;;
51214;SDS011;63849;47.546;19.254;2023-05-31T07:29:32;5.85;;;3.47;;
51214;SDS011;63849;47.546;19.254;2023-05-31T07:31:58;5.20;;;3.55;;
51214;SDS011;63849;47.546;19.254;2023-05-31T07:34:24;7.35;;;3.65;;
51214;SDS011;63849;47.546;19.254;2023-05-31T07:36:50;8.65;;;3.60;;
51214;SDS011;63849;47.546;19.254;2023-05-31T07:39:16;6.88;;;3.70;;
51214;SDS011;63849;47.546;19.254;2023-05-31T07:41:42;4.97;;;3.47;;
51214;SDS011;63849;47.546;19.254;2023-05-31T07:44:11;6.57;;;3.63;;
51214;SDS011;63849;47.546;19.254;2023-05-31T07:46:37;4.45;;;3.63;;
51214;SDS011;63849;47.546;19.254;2023-05-31T07:49:02;4.95;;;3.35;;
51214;SDS011;63849;47.546;19.254;2023-05-31T07:51:29;8.82;;;3.40;;
51214;SDS011;63849;47.546;19.254;2023-05-31T07:53:55;8.80;;;3.80;;
51214;SDS011;63849;47.546;19.254;2023-05-31T07:56:21;5.60;;;3.35;;
51214;SDS011;63849;47.546;19.254;2023-05-31T07:58:47;7.40;;;3.40;;
51214;SDS011;63849;47.546;19.254;2023-05-31T08:01:13;5.50;;;3.55;;
51214;SDS011;63849;47.546;19.254;2023-05-31T08:03:40;7.72;;;3.60;;
51214;SDS011;63849;47.546;19.254;2023-05-31T08:06:06;6.90;;;3.95;;
51214;SDS011;63849;47.546;19.254;2023-05-31T08:08:32;5.10;;;3.47;;
51214;SDS011;63849;47.546;19.254;2023-05-31T08:10:59;6.47;;;3.50;;
51214;SDS011;63849;47.546;19.254;2023-05-31T08:13:26;5.15;;;3.65;;
51214;SDS011;63849;47.546;19.254;2023-05-31T08:15:54;4.72;;;3.40;;
51214;SDS011;63849;47.546;19.254;2023-05-31T08:18:21;10.90;;;3.55;;
51214;SDS011;63849;47.546;19.254;2023-05-31T08:20:47;3.95;;;3.15;;
51214;SDS011;63849;47.546;19.254;2023-05-31T08:23:18;5.57;;;3.65;;
51214;SDS011;63849;47.546;19.254;2023-05-31T08:25:45;7.53;;;3.38;;
51214;SDS011;63849;47.546;19.254;2023-05-31T08:28:11;7.38;;;4.18;;
51214;SDS011;63849;47.546;19.254;2023-05-31T08:30:37;5.97;;;4.00;;
51214;SDS011;63849;47.546;19.254;2023-05-31T08:33:02;13.32;;;4.03;;
51214;SDS011;63849;47.546;19.254;2023-05-31T08:35:28;6.18;;;3.92;;
51214;SDS011;63849;47.546;19.254;2023-05-31T08:37:55;7.22;;;3.50;;
51214;SDS011;63849;47.546;19.254;2023-05-31T08:40:21;7.28;;;3.72;;
51214;SDS011;63849;47.546;19.254;2023-05-31T08:42:51;6.18;;;3.80;;
51214;SDS011;63849;47.546;19.254;2023-05-31T08:45:24;5.10;;;3.85;;
51214;SDS011;63849;47.546;19.254;2023-05-31T08:48:02;4.60;;;3.58;;
51214;SDS011;63849;47.546;19.254;2023-05-31T08:50:51;7.13;;;3.88;;
51214;SDS011;63849;47.546;19.254;2023-05-31T08:53:19;7.80;;;3.70;;
51214;SDS011;63849;47.546;19.254;2023-05-31T08:55:45;6.75;;;3.70;;
51214;SDS011;63849;47.546;19.254;2023-05-31T08:58:13;5.95;;;3.63;;
51214;SDS011;63849;47.546;19.254;2023-05-31T09:00:39;5.85;;;3.53;;
51214;SDS011;63849;47.546;19.254;2023-05-31T09:03:06;9.35;;;3.85;;
51214;SDS011;63849;47.546;19.254;2023-05-31T09:05:34;5.80;;;3.65;;
51214;SDS011;63849;47.546;19.254;2023-05-31T09:08:00;8.95;;;3.78;;
51214;SDS011;63849;47.546;19.254;2023-05-31T09:10:26;6.25;;;3.97;;
51214;SDS011;63849;47.546;19.254;2023-05-31T09:12:51;8.57;;;3.60;;
51214;SDS011;63849;47.546;19.254;2023-05-31T09:15:18;4.65;;;3.40;;
51214;SDS011;63849;47.546;19.254;2023-05-31T09:17:49;5.03;;;3.40;;
51214;SDS011;63849;47.546;19.254;2023-05-31T09:20:16;8.93;;;4.38;;
51214;SDS011;63849;47.546;19.254;2023-05-31T09:22:46;6.45;;;4.18;;
51214;SDS011;63849;47.546;19.254;2023-05-31T09:25:15;5.60;;;3.28;;
51214;SDS011;63849;47.546;19.254;2023-05-31T09:27:40;5.95;;;3.95;;
51214;SDS011;63849;47.546;19.254;2023-05-31T09:32:36;5.15;;;3.95;;
51214;SDS011;63849;47.546;19.254;2023-05-31T09:35:13;5.05;;;3.40;;
51214;SDS011;63849;47.546;19.254;2023-05-31T09:37:47;4.97;;;3.83;;
51214;SDS011;63849;47.546;19.254;2023-05-31T09:40:24;7.13;;;3.78;;
51214;SDS011;63849;47.546;19.254;2023-05-31T09:42:51;4.30;;;3.90;;
51214;SDS011;63849;47.546;19.254;2023-05-31T09:45:18;7.90;;;3.97;;
51214;SDS011;63849;47.546;19.254;2023-05-31T09:47:45;6.68;;;4.20;;
51214;SDS011;63849;47.546;19.254;2023-05-31T09:50:15;7.40;;;3.95;;
51214;SDS011;63849;47.546;19.254;2023-05-31T09:52:45;7.43;;;3.88;;
51214;SDS011;63849;47.546;19.254;2023-05-31T09:55:13;3.95;;;3.20;;
51214;SDS011;63849;47.546;19.254;2023-05-31T09:57:40;5.55;;;3.50;;
51214;SDS011;63849;47.546;19.254;2023-05-31T10:00:15;6.15;;;3.58;;
51214;SDS011;63849;47.546;19.254;2023-05-31T10:02:52;6.57;;;3.63;;
51214;SDS011;63849;47.546;19.254;2023-05-31T10:05:19;4.78;;;4.13;;
51214;SDS011;63849;47.546;19.254;2023-05-31T10:07:49;6.22;;;4.28;;
51214;SDS011;63849;47.546;19.254;2023-05-31T10:10:17;5.53;;;4.03;;
51214;SDS011;63849;47.546;19.254;2023-05-31T10:12:48;6.70;;;4.20;;
51214;SDS011;63849;47.546;19.254;2023-05-31T10:15:21;5.18;;;3.90;;
51214;SDS011;63849;47.546;19.254;2023-05-31T10:17:50;5.75;;;4.10;;
51214;SDS011;63849;47.546;19.254;2023-05-31T10:20:21;6.00;;;3.65;;
51214;SDS011;63849;47.546;19.254;2023-05-31T10:22:49;5.85;;;3.53;;
51214;SDS011;63849;47.546;19.254;2023-05-31T10:25:30;5.43;;;4.07;;
51214;SDS011;63849;47.546;19.254;2023-05-31T10:28:01;7.00;;;3.80;;
51214;SDS011;63849;47.546;19.254;2023-05-31T10:30:34;4.63;;;3.85;;
51214;SDS011;63849;47.546;19.254;2023-05-31T10:33:10;11.43;;;4.53;;
51214;SDS011;63849;47.546;19.254;2023-05-31T10:35:38;5.45;;;4.10;;
51214;SDS011;63849;47.546;19.254;2023-05-31T10:38:04;6.43;;;4.30;;
51214;SDS011;63849;47.546;19.254;2023-05-31T10:40:33;4.45;;;3.80;;
51214;SDS011;63849;47.546;19.254;2023-05-31T10:45:54;6.63;;;3.95;;
51214;SDS011;63849;47.546;19.254;2023-05-31T10:48:30;6.40;;;3.97;;
51214;SDS011;63849;47.546;19.254;2023-05-31T10:51:38;5.60;;;3.38;;
51214;SDS011;63849;47.546;19.254;2023-05-31T10:54:17;11.43;;;4.03;;
51214;SDS011;63849;47.546;19.254;2023-05-31T10:56:51;4.75;;;4.10;;
51214;SDS011;63849;47.546;19.254;2023-05-31T10:59:21;4.78;;;3.75;;
51214;SDS011;63849;47.546;19.254;2023-05-31T11:01:47;10.27;;;4.30;;
51214;SDS011;63849;47.546;19.254;2023-05-31T11:04:25;6.20;;;3.70;;
51214;SDS011;63849;47.546;19.254;2023-05-31T11:06:52;5.60;;;4.38;;
51214;SDS011;63849;47.546;19.254;2023-05-31T11:09:40;6.32;;;4.03;;
51214;SDS011;63849;47.546;19.254;2023-05-31T11:12:07;6.80;;;3.85;;
51214;SDS011;63849;47.546;19.254;2023-05-31T11:14:37;6.50;;;3.63;;
51214;SDS011;63849;47.546;19.254;2023-05-31T11:19:31;4.50;;;3.45;;
51214;SDS011;63849;47.546;19.254;2023-05-31T11:22:06;6.20;;;3.80;;
51214;SDS011;63849;47.546;19.254;2023-05-31T11:24:39;6.25;;;4.15;;
51214;SDS011;63849;47.546;19.254;2023-05-31T11:27:17;6.90;;;4.45;;
51214;SDS011;63849;47.546;19.254;2023-05-31T11:32:15;6.72;;;4.18;;
51214;SDS011;63849;47.546;19.254;2023-05-31T11:34:58;7.90;;;4.75;;
51214;SDS011;63849;47.546;19.254;2023-05-31T11:37:34;8.30;;;4.30;;
51214;SDS011;63849;47.546;19.254;2023-05-31T11:42:34;8.15;;;4.53;;
51214;SDS011;63849;47.546;19.254;2023-05-31T11:45:04;6.43;;;3.78;;
51214;SDS011;63849;47.546;19.254;2023-05-31T11:47:51;5.32;;;3.75;;
51214;SDS011;63849;47.546;19.254;2023-05-31T11:50:25;6.97;;;4.30;;
51214;SDS011;63849;47.546;19.254;2023-05-31T11:52:53;7.50;;;4.72;;
51214;SDS011;63849;47.546;19.254;2023-05-31T11:55:20;8.32;;;4.50;;
51214;SDS011;63849;47.546;19.254;2023-05-31T11:57:47;6.50;;;3.80;;
51214;SDS011;63849;47.546;19.254;2023-05-31T12:00:19;5.90;;;3.85;;
51214;SDS011;63849;47.546;19.254;2023-05-31T12:02:51;7.22;;;4.28;;
51214;SDS011;63849;47.546;19.254;2023-05-31T12:05:18;4.50;;;3.75;;
51214;SDS011;63849;47.546;19.254;2023-05-31T12:07:45;6.70;;;4.10;;
51214;SDS011;63849;47.546;19.254;2023-05-31T12:10:15;4.22;;;3.67;;
51214;SDS011;63849;47.546;19.254;2023-05-31T12:12:41;8.60;;;4.20;;
51214;SDS011;63849;47.546;19.254;2023-05-31T12:15:10;4.90;;;3.95;;
51214;SDS011;63849;47.546;19.254;2023-05-31T12:17:37;4.97;;;3.80;;
51214;SDS011;63849;47.546;19.254;2023-05-31T12:20:04;4.18;;;3.70;;
51214;SDS011;63849;47.546;19.254;2023-05-31T12:22:30;5.97;;;3.90;;
51214;SDS011;63849;47.546;19.254;2023-05-31T12:24:56;6.22;;;4.07;;
51214;SDS011;63849;47.546;19.254;2023-05-31T12:27:22;7.75;;;4.22;;
51214;SDS011;63849;47.546;19.254;2023-05-31T12:29:49;10.35;;;4.65;;
51214;SDS011;63849;47.546;19.254;2023-05-31T12:32:20;7.90;;;4.30;;
51214;SDS011;63849;47.546;19.254;2023-05-31T12:34:46;5.38;;;4.30;;
51214;SDS011;63849;47.546;19.254;2023-05-31T12:37:15;5.95;;;3.83;;
51214;SDS011;63849;47.546;19.254;2023-05-31T12:39:40;8.25;;;4.82;;
51214;SDS011;63849;47.546;19.254;2023-05-31T12:42:06;6.68;;;4.30;;
51214;SDS011;63849;47.546;19.254;2023-05-31T12:44:33;5.47;;;4.10;;
51214;SDS011;63849;47.546;19.254;2023-05-31T12:47:01;6.93;;;4.43;;
51214;SDS011;63849;47.546;19.254;2023-05-31T12:49:34;5.07;;;3.58;;
51214;SDS011;63849;47.546;19.254;2023-05-31T12:52:01;8.80;;;4.07;;
51214;SDS011;63849;47.546;19.254;2023-05-31T12:54:34;5.53;;;4.50;;
51214;SDS011;63849;47.546;19.254;2023-05-31T12:57:02;5.90;;;4.07;;
51214;SDS011;63849;47.546;19.254;2023-05-31T12:59:30;8.98;;;4.50;;
51214;SDS011;63849;47.546;19.254;2023-05-31T13:01:59;6.63;;;4.53;;
51214;SDS011;63849;47.546;19.254;2023-05-31T13:04:26;7.57;;;3.90;;
51214;SDS011;63849;47.546;19.254;2023-05-31T13:06:52;4.30;;;3.90;;
51214;SDS011;63849;47.546;19.254;2023-05-31T13:09:18;7.80;;;4.60;;
51214;SDS011;63849;47.546;19.254;2023-05-31T13:11:45;9.07;;;4.32;;
51214;SDS011;63849;47.546;19.254;2023-05-31T13:14:16;6.38;;;4.43;;
51214;SDS011;63849;47.546;19.254;2023-05-31T13:16:44;7.38;;;4.20;;
51214;SDS011;63849;47.546;19.254;2023-05-31T13:19:10;4.38;;;3.90;;
51214;SDS011;63849;47.546;19.254;2023-05-31T13:21:37;4.50;;;4.03;;
51214;SDS011;63849;47.546;19.254;2023-05-31T13:24:03;6.45;;;4.30;;
51214;SDS011;63849;47.546;19.254;2023-05-31T13:26:29;6.13;;;3.85;;
51214;SDS011;63849;47.546;19.254;2023-05-31T13:28:56;5.43;;;4.70;;
51214;SDS011;63849;47.546;19.254;2023-05-31T13:31:24;6.25;;;4.47;;
51214;SDS011;63849;47.546;19.254;2023-05-31T13:33:51;6.40;;;3.83;;
51214;SDS011;63849;47.546;19.254;2023-05-31T13:36:17;6.15;;;4.28;;
51214;SDS011;63849;47.546;19.254;2023-05-31T13:38:45;6.38;;;4.55;;
51214;SDS011;63849;47.546;19.254;2023-05-31T13:41:11;5.28;;;4.32;;
51214;SDS011;63849;47.546;19.254;2023-05-31T13:43:37;6.05;;;4.32;;
51214;SDS011;63849;47.546;19.254;2023-05-31T13:46:04;5.72;;;4.55;;
51214;SDS011;63849;47.546;19.254;2023-05-31T13:48:40;5.20;;;4.18;;
51214;SDS011;63849;47.546;19.254;2023-05-31T13:51:07;5.10;;;4.60;;
51214;SDS011;63849;47.546;19.254;2023-05-31T13:53:34;6.40;;;4.43;;
51214;SDS011;63849;47.546;19.254;2023-05-31T13:56:00;4.63;;;3.90;;
51214;SDS011;63849;47.546;19.254;2023-05-31T13:58:26;5.07;;;4.28;;
51214;SDS011;63849;47.546;19.254;2023-05-31T14:00:52;6.25;;;4.53;;
51214;SDS011;63849;47.546;19.254;2023-05-31T14:03:17;7.20;;;4.65;;
51214;SDS011;63849;47.546;19.254;2023-05-31T14:05:44;4.97;;;3.97;;
51214;SDS011;63849;47.546;19.254;2023-05-31T14:08:15;4.22;;;3.72;;
51214;SDS011;63849;47.546;19.254;2023-05-31T14:10:41;7.10;;;4.10;;
51214;SDS011;63849;47.546;19.254;2023-05-31T14:13:07;5.00;;;4.50;;
51214;SDS011;63849;47.546;19.254;2023-05-31T14:15:33;6.78;;;4.78;;
51214;SDS011;63849;47.546;19.254;2023-05-31T14:17:59;4.85;;;3.80;;
51214;SDS011;63849;47.546;19.254;2023-05-31T14:20:25;11.00;;;4.45;;
51214;SDS011;63849;47.546;19.254;2023-05-31T14:22:51;5.60;;;3.95;;
51214;SDS011;63849;47.546;19.254;2023-05-31T14:25:17;5.65;;;3.60;;
51214;SDS011;63849;47.546;19.254;2023-05-31T14:27:42;4.95;;;4.45;;
51214;SDS011;63849;47.546;19.254;2023-05-31T14:30:08;6.38;;;4.05;;
51214;SDS011;63849;47.546;19.254;2023-05-31T14:32:34;6.55;;;4.07;;
51214;SDS011;63849;47.546;19.254;2023-05-31T14:35:00;7.47;;;4.68;;
51214;SDS011;63849;47.546;19.254;2023-05-31T14:37:26;7.55;;;4.18;;
51214;SDS011;63849;47.546;19.254;2023-05-31T14:39:52;6.45;;;3.80;;
51214;SDS011;63849;47.546;19.254;2023-05-31T14:42:17;7.25;;;4.07;;
51214;SDS011;63849;47.546;19.254;2023-05-31T14:44:43;6.43;;;4.53;;
51214;SDS011;63849;47.546;19.254;2023-05-31T14:47:10;8.50;;;4.10;;
51214;SDS011;63849;47.546;19.254;2023-05-31T14:49:36;7.63;;;4.40;;
51214;SDS011;63849;47.546;19.254;2023-05-31T14:52:01;5.57;;;4.47;;
51214;SDS011;63849;47.546;19.254;2023-05-31T14:54:27;6.70;;;4.32;;
51214;SDS011;63849;47.546;19.254;2023-05-31T14:56:53;5.07;;;4.20;;
51214;SDS011;63849;47.546;19.254;2023-05-31T14:59:19;4.78;;;3.90;;